Flight Track Log - Related Links

Times and Time Zones

All times are in EDT time to prevent confusion due to time zone crossing. See the UAL5915 flight status page for this flight to view local times or setup timezone preferences in your user account.

Time Position Orientation Groundspeed Altitude Reporting Facility
EDT Latitude Longitude Course Direction KTS MPH feet Rate Location/Type
Tue 02:59:02 PM 38.9667 -77.5167 78° East 177 204 2,000  Level Potomac TRACON
Tue 03:00:08 PM 39.0167 -77.5333 345° North 211 243 4,900 2,571 Climbing Potomac TRACON
Tue 03:01:00 PM 39.0000 -77.1069 90° East  Level FlightAware Approximate
Tue 03:01:08 PM 39.0833 -77.5333 360° North 259 298 7,400  Level Potomac TRACON
Tue 03:02:00 PM 39.0224 -76.9884 76° East  Level FlightAware Approximate
Tue 03:02:08 PM 39.1333 -77.4833 38° Northeast 277 319 9,600  Level Potomac TRACON
Tue 03:03:00 PM 39.0440 -76.8694 78° East  Level FlightAware Approximate
Tue 03:03:02 PM 39.1500 -77.3833 78° East 349 402 10,000  Level Potomac TRACON
Tue 03:04:00 PM 39.0639 -76.7499 78° East  Level FlightAware Approximate
Tue 03:04:46 PM 39.0950 -77.1642 108° East 393 452 12,200  Level Washington Center
Tue 03:05:46 PM 39.0694 -77.0353 104° East 385 443 14,000 1,950 Climbing Washington Center
Tue 03:06:46 PM 39.0814 -76.9019 83° East 367 422 16,100 2,000 Climbing Washington Center
Tue 03:07:46 PM 39.0953 -76.7683 82° East 367 422 18,000 1,650 Climbing Washington Center
Tue 03:08:46 PM 39.1089 -76.6322 83° East 373 429 19,400 1,450 Climbing Washington Center
Tue 03:09:46 PM 39.1225 -76.4958 83° East 379 436 20,900 1,550 Climbing Washington Center
Tue 03:10:46 PM 39.1361 -76.3542 83° East 391 450 22,500 1,050 Climbing Washington Center
Tue 03:11:46 PM 39.1494 -76.2097 83° East 401 461 23,000 250 Climbing Washington Center
Tue 03:12:46 PM 39.1708 -76.0869 77° East 401 461 23,000 150 Level Washington Center
Tue 03:13:46 PM 39.1858 -75.9397 82° East 401 461 23,300 700 Climbing Washington Center
Tue 03:14:46 PM 39.2403 -75.8167 60° Northeast 393 452 24,400 1,200 Climbing Washington Center
Tue 03:15:46 PM 39.3217 -75.7178 43° Northeast 385 443 25,700 900 Climbing Washington Center
Tue 03:16:46 PM 39.4031 -75.6103 46° Northeast 392 451 26,200 1,000 Climbing Washington Center
Tue 03:17:46 PM 39.4864 -75.5028 45° Northeast 409 471 27,700 1,450 Climbing Washington Center
Tue 03:18:46 PM 39.5656 -75.3978 46° Northeast 409 471 29,100 1,350 Climbing Washington Center
Tue 03:19:46 PM 39.6464 -75.2897 46° Northeast 409 471 30,400 1,286 Climbing Washington Center
Tue 03:20:52 PM 39.7425 -75.1525 48° Northeast 442 509 31,800 1,181 Climbing New York Center
Tue 03:21:53 PM 39.8258 -75.0361 47° Northeast 442 509 32,900 595 Climbing New York Center
Tue 03:22:53 PM 39.9094 -74.9142 48° Northeast 442 509 33,000 51 Climbing New York Center
Tue 03:23:51 PM 39.9994 -74.7867 47° Northeast 457 526 33,000  Level New York Center
Tue 03:24:51 PM 40.0914 -74.6564 47° Northeast 482 555 33,000  Level New York Center
Tue 03:25:52 PM 40.1831 -74.5228 48° Northeast 488 562 33,000  Level New York Center
Tue 03:26:53 PM 40.2806 -74.4111 41° Northeast 502 578 33,000  Level New York Center
Tue 03:27:53 PM 40.3906 -74.2889 40° Northeast 507 583 33,000  Level New York Center
Tue 03:28:53 PM 40.4778 -74.1489 51° Northeast 502 578 33,000 -1,123 Level New York Center
Tue 03:30:28 PM 40.6153 -73.8972 54° Northeast 507 583 30,100 -2,052 Descending Boston Center
Tue 03:31:28 PM 40.6900 -73.7594 54° Northeast 485 558 27,700 -2,100 Descending Boston Center
Tue 03:32:28 PM 40.7519 -73.6319 57° Northeast 468 539 25,900 -1,750 Descending Boston Center
Tue 03:33:28 PM 40.8197 -73.5042 55° Northeast 440 506 24,200 -1,850 Descending Boston Center
Tue 03:34:28 PM 40.8917 -73.3900 50° Northeast 415 478 22,200 -1,650 Descending Boston Center
Tue 03:35:28 PM 40.9761 -73.2703 47° Northeast 409 471 20,900 -1,150 Descending Boston Center
Tue 03:36:28 PM 41.0539 -73.1558 48° Northeast 404 465 19,900 -950 Descending Boston Center
Tue 03:37:28 PM 41.1172 -73.0381 54° Northeast 423 487 19,000 -450 Descending Boston Center
Tue 03:38:28 PM 41.1719 -72.8950 63° Northeast 423 487 19,000  Level Boston Center
Tue 03:39:28 PM 41.2267 -72.7519 63° Northeast 423 487 19,000  Level Boston Center
Tue 03:40:28 PM 41.2792 -72.6114 64° Northeast 428 493 19,000  Level Boston Center
Tue 03:41:28 PM 41.3397 -72.4567 62° Northeast 420 483 19,000  Level Boston Center
Tue 03:42:28 PM 41.3833 -72.3406 63° Northeast 405 466 19,000 -300 Level Boston Center
Tue 03:43:28 PM 41.4394 -72.1992 62° Northeast 387 445 18,400 -750 Descending Boston Center
Tue 03:44:28 PM 41.4828 -72.0828 64° Northeast 387 445 17,500 -1,150 Descending Boston Center
Tue 03:45:28 PM 41.5322 -71.9492 64° Northeast 376 433 16,100 -1,300 Descending Boston Center
Tue 03:46:28 PM 41.5714 -71.8464 63° Northeast 353 406 14,900 -1,350 Descending Boston Center
Tue 03:47:28 PM 41.6186 -71.7208 63° Northeast 337 388 13,400 -1,450 Descending Boston Center
Tue 03:48:28 PM 41.6575 -71.6092 65° Northeast 331 381 12,000 -1,200 Descending Boston Center
Tue 03:49:28 PM 41.6964 -71.5058 63° Northeast 318 366 11,000 -500 Descending Boston Center
Tue 03:50:28 PM 41.7372 -71.4136 59° Northeast 298 343 11,000  Level Boston Center
Tue 03:51:28 PM 41.7867 -71.3542 42° Northeast 268 308 11,000 -50 Level Boston Center
Tue 03:52:28 PM 41.8444 -71.2892 40° Northeast 249 287 10,900 -600 Descending Boston Center
Tue 03:53:28 PM 41.8917 -71.2325 42° Northeast 249 287 9,800 -1,150 Descending Boston Center
Tue 03:54:28 PM 41.9600 -71.2006 19° North 235 270 8,600 -1,050 Descending Boston Center
Tue 03:55:28 PM 42.0139 -71.1742 20° North 224 258 7,700 -908 Descending Boston Center
Tue 03:56:27 PM 42.0497 -71.2100 323° Northwest 189 217 6,800 -1,250 Descending Boston Center
Tue 03:57:28 PM 42.0953 -71.1839 23° Northeast 142 163 5,200 -1,339 Descending Boston Center
Tue 03:58:28 PM 42.1261 -71.1356 49° Northeast 149 171 4,100 -900 Descending Boston Center
Tue 03:59:28 PM 42.1569 -71.1014 39° Northeast 149 171 3,400 -508 Descending Boston Center
Tue 04:00:38 PM 42.2167 -71.0833 13° North 157 181 3,000 -462 Descending KA90
Tue 04:01:38 PM 42.2500 -71.0667 20° North 157 181 2,400 -600 Descending KA90

Login

Don't have an account? Register now (free) for customized features, flight alerts, and more!